sensor_id;sensor_type;location;lat;lon;timestamp;pressure;altitude;pressure_sealevel;temperature;humidity
78841;BME280;68379;47.190;27.558;2023-03-23T00:00:40;99861.82;;;7.52;72.77
78841;BME280;68379;47.190;27.558;2023-03-23T00:03:18;99863.66;;;7.48;72.94
78841;BME280;68379;47.190;27.558;2023-03-23T00:05:52;99864.77;;;7.47;73.02
78841;BME280;68379;47.190;27.558;2023-03-23T00:08:30;99864.82;;;7.45;73.26
78841;BME280;68379;47.190;27.558;2023-03-23T00:11:02;99867.38;;;7.41;73.21
78841;BME280;68379;47.190;27.558;2023-03-23T00:13:34;99862.38;;;7.37;73.27
78841;BME280;68379;47.190;27.558;2023-03-23T00:16:07;99861.83;;;7.32;73.25
78841;BME280;68379;47.190;27.558;2023-03-23T00:18:48;99859.12;;;7.26;73.35
78841;BME280;68379;47.190;27.558;2023-03-23T00:21:23;99852.89;;;7.24;73.44
78841;BME280;68379;47.190;27.558;2023-03-23T00:24:07;99855.55;;;7.22;73.61
78841;BME280;68379;47.190;27.558;2023-03-23T00:26:42;99852.20;;;7.23;73.67
78841;BME280;68379;47.190;27.558;2023-03-23T00:29:16;99853.05;;;7.24;73.66
78841;BME280;68379;47.190;27.558;2023-03-23T00:31:49;99852.34;;;7.24;73.62
78841;BME280;68379;47.190;27.558;2023-03-23T00:34:22;99854.59;;;7.25;74.20
78841;BME280;68379;47.190;27.558;2023-03-23T00:36:55;99850.80;;;7.23;73.97
78841;BME280;68379;47.190;27.558;2023-03-23T00:39:28;99848.86;;;7.23;74.31
78841;BME280;68379;47.190;27.558;2023-03-23T00:41:59;99847.82;;;7.22;74.02
78841;BME280;68379;47.190;27.558;2023-03-23T00:44:33;99843.20;;;7.24;73.94
78841;BME280;68379;47.190;27.558;2023-03-23T00:47:05;99842.46;;;7.25;73.72
78841;BME280;68379;47.190;27.558;2023-03-23T00:49:39;99841.91;;;7.26;73.72
78841;BME280;68379;47.190;27.558;2023-03-23T00:52:11;99837.80;;;7.29;74.14
78841;BME280;68379;47.190;27.558;2023-03-23T00:54:43;99841.85;;;7.36;73.96
78841;BME280;68379;47.190;27.558;2023-03-23T00:57:14;99837.84;;;7.42;74.18
78841;BME280;68379;47.190;27.558;2023-03-23T00:59:47;99836.85;;;7.45;74.14
78841;BME280;68379;47.190;27.558;2023-03-23T01:02:18;99835.08;;;7.46;74.05
78841;BME280;68379;47.190;27.558;2023-03-23T01:04:55;99834.25;;;7.44;73.84
78841;BME280;68379;47.190;27.558;2023-03-23T01:07:28;99836.25;;;7.41;73.85
78841;BME280;68379;47.190;27.558;2023-03-23T01:10:01;99837.27;;;7.43;73.85
78841;BME280;68379;47.190;27.558;2023-03-23T01:12:32;99832.97;;;7.46;73.91
78841;BME280;68379;47.190;27.558;2023-03-23T01:15:05;99834.98;;;7.50;73.90
78841;BME280;68379;47.190;27.558;2023-03-23T01:17:38;99831.88;;;7.54;74.15
78841;BME280;68379;47.190;27.558;2023-03-23T01:20:11;99830.54;;;7.58;74.27
78841;BME280;68379;47.190;27.558;2023-03-23T01:22:44;99829.21;;;7.61;74.22
78841;BME280;68379;47.190;27.558;2023-03-23T01:25:16;99825.19;;;7.60;74.17
78841;BME280;68379;47.190;27.558;2023-03-23T01:27:48;99825.06;;;7.59;74.20
78841;BME280;68379;47.190;27.558;2023-03-23T01:30:19;99818.60;;;7.57;74.14
78841;BME280;68379;47.190;27.558;2023-03-23T01:32:51;99816.34;;;7.56;74.08
78841;BME280;68379;47.190;27.558;2023-03-23T01:35:23;99821.23;;;7.57;74.23
78841;BME280;68379;47.190;27.558;2023-03-23T01:37:55;99821.10;;;7.56;73.82
78841;BME280;68379;47.190;27.558;2023-03-23T01:40:27;99816.35;;;7.56;73.92
78841;BME280;68379;47.190;27.558;2023-03-23T01:42:59;99816.87;;;7.55;74.14
78841;BME280;68379;47.190;27.558;2023-03-23T01:45:32;99818.49;;;7.54;74.33
78841;BME280;68379;47.190;27.558;2023-03-23T01:48:13;99818.55;;;7.52;74.20
78841;BME280;68379;47.190;27.558;2023-03-23T01:50:53;99819.70;;;7.49;74.30
78841;BME280;68379;47.190;27.558;2023-03-23T01:53:30;99821.52;;;7.47;74.32
78841;BME280;68379;47.190;27.558;2023-03-23T01:56:04;99821.31;;;7.48;74.41
78841;BME280;68379;47.190;27.558;2023-03-23T01:58:38;99821.65;;;7.48;74.16
78841;BME280;68379;47.190;27.558;2023-03-23T02:01:12;99819.95;;;7.46;74.21
78841;BME280;68379;47.190;27.558;2023-03-23T02:03:45;99821.35;;;7.46;74.05
78841;BME280;68379;47.190;27.558;2023-03-23T02:06:18;99819.34;;;7.43;74.27
78841;BME280;68379;47.190;27.558;2023-03-23T02:08:50;99816.60;;;7.40;74.40
78841;BME280;68379;47.190;27.558;2023-03-23T02:11:23;99815.85;;;7.35;74.62
78841;BME280;68379;47.190;27.558;2023-03-23T02:13:55;99815.46;;;7.30;74.65
78841;BME280;68379;47.190;27.558;2023-03-23T02:16:34;99818.58;;;7.25;75.04
78841;BME280;68379;47.190;27.558;2023-03-23T02:19:23;99817.73;;;7.24;74.89
78841;BME280;68379;47.190;27.558;2023-03-23T02:25:25;99810.67;;;7.18;74.94
78841;BME280;68379;47.190;27.558;2023-03-23T02:31:30;99811.41;;;7.04;75.06
78841;BME280;68379;47.190;27.558;2023-03-23T02:34:11;99806.90;;;6.94;75.37
78841;BME280;68379;47.190;27.558;2023-03-23T02:36:50;99805.86;;;6.86;75.51
78841;BME280;68379;47.190;27.558;2023-03-23T02:39:26;99810.72;;;6.82;75.40
78841;BME280;68379;47.190;27.558;2023-03-23T02:42:03;99814.01;;;6.76;75.40
78841;BME280;68379;47.190;27.558;2023-03-23T02:44:38;99807.94;;;6.73;75.44
78841;BME280;68379;47.190;27.558;2023-03-23T02:47:15;99812.89;;;6.71;75.50
78841;BME280;68379;47.190;27.558;2023-03-23T02:49:51;99814.39;;;6.68;75.44
78841;BME280;68379;47.190;27.558;2023-03-23T02:52:26;99816.06;;;6.64;75.29
78841;BME280;68379;47.190;27.558;2023-03-23T02:55:01;99813.52;;;6.60;75.32
78841;BME280;68379;47.190;27.558;2023-03-23T02:57:34;99817.65;;;6.56;75.43
78841;BME280;68379;47.190;27.558;2023-03-23T03:00:12;99814.04;;;6.53;75.89
78841;BME280;68379;47.190;27.558;2023-03-23T03:02:46;99816.52;;;6.51;77.04
78841;BME280;68379;47.190;27.558;2023-03-23T03:05:32;99816.13;;;6.53;76.87
78841;BME280;68379;47.190;27.558;2023-03-23T03:08:18;99815.54;;;6.57;76.16
78841;BME280;68379;47.190;27.558;2023-03-23T03:10:57;99816.27;;;6.55;75.77
78841;BME280;68379;47.190;27.558;2023-03-23T03:13:39;99819.13;;;6.52;75.83
78841;BME280;68379;47.190;27.558;2023-03-23T03:16:24;99823.39;;;6.50;75.91
78841;BME280;68379;47.190;27.558;2023-03-23T03:19:00;99818.05;;;6.46;75.90
78841;BME280;68379;47.190;27.558;2023-03-23T03:21:37;99823.38;;;6.43;75.74
78841;BME280;68379;47.190;27.558;2023-03-23T03:24:11;99824.18;;;6.39;75.82
78841;BME280;68379;47.190;27.558;2023-03-23T03:26:47;99828.48;;;6.35;75.80
78841;BME280;68379;47.190;27.558;2023-03-23T03:29:21;99832.47;;;6.30;75.89
78841;BME280;68379;47.190;27.558;2023-03-23T03:31:57;99834.33;;;6.24;76.21
78841;BME280;68379;47.190;27.558;2023-03-23T03:34:30;99834.23;;;6.21;76.15
78841;BME280;68379;47.190;27.558;2023-03-23T03:37:03;99840.98;;;6.17;76.15
78841;BME280;68379;47.190;27.558;2023-03-23T03:39:38;99842.48;;;6.13;76.16
78841;BME280;68379;47.190;27.558;2023-03-23T03:42:09;99842.39;;;6.08;76.12
78841;BME280;68379;47.190;27.558;2023-03-23T03:44:41;99844.73;;;6.06;76.30
78841;BME280;68379;47.190;27.558;2023-03-23T03:47:13;99846.22;;;6.02;76.39
78841;BME280;68379;47.190;27.558;2023-03-23T03:49:44;99845.59;;;5.98;76.40
78841;BME280;68379;47.190;27.558;2023-03-23T03:52:18;99845.64;;;5.95;76.82
78841;BME280;68379;47.190;27.558;2023-03-23T03:54:50;99847.59;;;5.94;77.05
78841;BME280;68379;47.190;27.558;2023-03-23T03:57:22;99843.27;;;5.90;76.92
78841;BME280;68379;47.190;27.558;2023-03-23T03:59:53;99846.95;;;5.90;77.14
78841;BME280;68379;47.190;27.558;2023-03-23T04:02:26;99847.13;;;5.90;77.25
78841;BME280;68379;47.190;27.558;2023-03-23T04:04:58;99849.20;;;5.92;77.23
78841;BME280;68379;47.190;27.558;2023-03-23T04:07:34;99856.54;;;5.94;77.10
78841;BME280;68379;47.190;27.558;2023-03-23T04:10:10;99853.56;;;5.94;77.33
78841;BME280;68379;47.190;27.558;2023-03-23T04:12:43;99856.70;;;5.93;77.44
78841;BME280;68379;47.190;27.558;2023-03-23T04:15:15;99860.55;;;5.95;77.34
78841;BME280;68379;47.190;27.558;2023-03-23T04:17:47;99856.93;;;6.01;77.17
78841;BME280;68379;47.190;27.558;2023-03-23T04:20:18;99857.38;;;6.05;77.23
78841;BME280;68379;47.190;27.558;2023-03-23T04:22:50;99852.62;;;6.14;77.69
78841;BME280;68379;47.190;27.558;2023-03-23T04:25:25;99853.61;;;6.25;77.43
78841;BME280;68379;47.190;27.558;2023-03-23T04:27:57;99853.09;;;6.33;77.44
78841;BME280;68379;47.190;27.558;2023-03-23T04:30:31;99850.27;;;6.42;77.36
78841;BME280;68379;47.190;27.558;2023-03-23T04:33:03;99850.38;;;6.45;77.00
78841;BME280;68379;47.190;27.558;2023-03-23T04:35:35;99848.94;;;6.46;76.92
78841;BME280;68379;47.190;27.558;2023-03-23T04:38:07;99851.00;;;6.48;76.95
78841;BME280;68379;47.190;27.558;2023-03-23T04:40:40;99854.43;;;6.52;76.88
78841;BME280;68379;47.190;27.558;2023-03-23T04:43:12;99856.11;;;6.56;76.58
78841;BME280;68379;47.190;27.558;2023-03-23T04:45:44;99856.54;;;6.60;76.59
78841;BME280;68379;47.190;27.558;2023-03-23T04:48:16;99860.09;;;6.65;76.53
78841;BME280;68379;47.190;27.558;2023-03-23T04:50:50;99862.42;;;6.71;76.44
78841;BME280;68379;47.190;27.558;2023-03-23T04:53:22;99859.35;;;6.75;76.48
78841;BME280;68379;47.190;27.558;2023-03-23T04:55:54;99861.70;;;6.79;76.36
78841;BME280;68379;47.190;27.558;2023-03-23T04:58:25;99864.91;;;6.85;76.27
78841;BME280;68379;47.190;27.558;2023-03-23T05:00:58;99864.55;;;6.92;76.22
78841;BME280;68379;47.190;27.558;2023-03-23T05:03:30;99865.27;;;6.99;75.92
78841;BME280;68379;47.190;27.558;2023-03-23T05:06:05;99866.54;;;7.04;75.95
78841;BME280;68379;47.190;27.558;2023-03-23T05:08:37;99868.96;;;7.13;75.77
78841;BME280;68379;47.190;27.558;2023-03-23T05:11:09;99872.05;;;7.23;75.78
78841;BME280;68379;47.190;27.558;2023-03-23T05:13:42;99870.20;;;7.34;75.62
78841;BME280;68379;47.190;27.558;2023-03-23T05:16:14;99870.61;;;7.45;75.49
78841;BME280;68379;47.190;27.558;2023-03-23T05:18:46;99875.40;;;7.57;75.30
78841;BME280;68379;47.190;27.558;2023-03-23T05:21:18;99873.74;;;7.66;75.22
78841;BME280;68379;47.190;27.558;2023-03-23T05:23:50;99875.41;;;7.76;75.00
78841;BME280;68379;47.190;27.558;2023-03-23T05:26:24;99878.01;;;7.84;74.70
78841;BME280;68379;47.190;27.558;2023-03-23T05:28:59;99874.29;;;7.91;74.49
78841;BME280;68379;47.190;27.558;2023-03-23T05:31:31;99878.81;;;7.99;74.45
78841;BME280;68379;47.190;27.558;2023-03-23T05:34:03;99881.38;;;8.08;74.25
78841;BME280;68379;47.190;27.558;2023-03-23T05:36:35;99878.48;;;8.17;74.16
78841;BME280;68379;47.190;27.558;2023-03-23T05:39:06;99876.21;;;8.28;73.87
78841;BME280;68379;47.190;27.558;2023-03-23T05:41:40;99879.60;;;8.39;73.62
78841;BME280;68379;47.190;27.558;2023-03-23T05:44:11;99882.88;;;8.48;73.27
78841;BME280;68379;47.190;27.558;2023-03-23T05:46:44;99885.11;;;8.56;73.13
78841;BME280;68379;47.190;27.558;2023-03-23T05:49:17;99885.98;;;8.61;73.11
78841;BME280;68379;47.190;27.558;2023-03-23T05:51:49;99892.39;;;8.66;73.09
78841;BME280;68379;47.190;27.558;2023-03-23T05:54:21;99895.95;;;8.70;73.04
78841;BME280;68379;47.190;27.558;2023-03-23T05:56:53;99895.95;;;8.75;72.85
78841;BME280;68379;47.190;27.558;2023-03-23T05:59:25;99900.52;;;8.81;72.50
78841;BME280;68379;47.190;27.558;2023-03-23T06:01:57;99902.33;;;8.86;72.17
78841;BME280;68379;47.190;27.558;2023-03-23T06:04:29;99904.56;;;8.93;71.85
78841;BME280;68379;47.190;27.558;2023-03-23T06:07:04;99900.23;;;9.02;71.74
78841;BME280;68379;47.190;27.558;2023-03-23T06:09:38;99897.55;;;9.14;71.58
78841;BME280;68379;47.190;27.558;2023-03-23T06:12:10;99904.38;;;9.26;70.80
78841;BME280;68379;47.190;27.558;2023-03-23T06:14:42;99906.09;;;9.33;70.76
78841;BME280;68379;47.190;27.558;2023-03-23T06:17:13;99909.52;;;9.41;70.66
78841;BME280;68379;47.190;27.558;2023-03-23T06:19:46;99909.52;;;9.52;70.51
78841;BME280;68379;47.190;27.558;2023-03-23T06:22:20;99912.55;;;9.61;70.03
78841;BME280;68379;47.190;27.558;2023-03-23T06:24:51;99913.62;;;9.66;69.85
78841;BME280;68379;47.190;27.558;2023-03-23T06:27:23;99914.74;;;9.74;69.86
78841;BME280;68379;47.190;27.558;2023-03-23T06:29:56;99912.10;;;9.84;69.61
78841;BME280;68379;47.190;27.558;2023-03-23T06:32:30;99907.42;;;9.97;69.42
78841;BME280;68379;47.190;27.558;2023-03-23T06:35:03;99913.36;;;10.08;68.93
78841;BME280;68379;47.190;27.558;2023-03-23T06:37:35;99914.64;;;10.21;68.85
78841;BME280;68379;47.190;27.558;2023-03-23T06:40:08;99916.33;;;10.35;68.60
78841;BME280;68379;47.190;27.558;2023-03-23T06:42:40;99916.64;;;10.44;67.66
78841;BME280;68379;47.190;27.558;2023-03-23T06:45:13;99916.00;;;10.52;67.99
78841;BME280;68379;47.190;27.558;2023-03-23T06:47:44;99919.92;;;10.61;68.03
78841;BME280;68379;47.190;27.558;2023-03-23T06:50:18;99919.70;;;10.66;67.82
78841;BME280;68379;47.190;27.558;2023-03-23T06:52:51;99921.91;;;10.73;67.62
78841;BME280;68379;47.190;27.558;2023-03-23T06:55:23;99920.15;;;10.83;67.55
78841;BME280;68379;47.190;27.558;2023-03-23T06:57:54;99922.02;;;10.98;67.19
78841;BME280;68379;47.190;27.558;2023-03-23T07:00:26;99923.40;;;11.12;67.06
78841;BME280;68379;47.190;27.558;2023-03-23T07:02:59;99920.73;;;11.30;66.85
78841;BME280;68379;47.190;27.558;2023-03-23T07:05:31;99926.05;;;11.46;66.50
78841;BME280;68379;47.190;27.558;2023-03-23T07:08:04;99921.93;;;11.61;66.02
78841;BME280;68379;47.190;27.558;2023-03-23T07:10:36;99921.23;;;11.72;65.65
78841;BME280;68379;47.190;27.558;2023-03-23T07:13:09;99924.77;;;11.85;64.69
78841;BME280;68379;47.190;27.558;2023-03-23T07:15:41;99923.07;;;11.92;63.84
78841;BME280;68379;47.190;27.558;2023-03-23T07:18:14;99922.38;;;12.00;64.09
78841;BME280;68379;47.190;27.558;2023-03-23T07:20:48;99920.59;;;12.09;64.16
78841;BME280;68379;47.190;27.558;2023-03-23T07:23:21;99924.55;;;12.19;63.59
78841;BME280;68379;47.190;27.558;2023-03-23T07:25:52;99928.08;;;12.31;63.51
78841;BME280;68379;47.190;27.558;2023-03-23T07:28:24;99932.70;;;12.42;62.95
78841;BME280;68379;47.190;27.558;2023-03-23T07:30:56;99933.77;;;12.50;62.43
78841;BME280;68379;47.190;27.558;2023-03-23T07:33:28;99934.86;;;12.54;62.08
78841;BME280;68379;47.190;27.558;2023-03-23T07:36:01;99931.25;;;12.59;62.26
78841;BME280;68379;47.190;27.558;2023-03-23T07:38:33;99930.20;;;12.70;61.69
78841;BME280;68379;47.190;27.558;2023-03-23T07:41:06;99926.06;;;12.82;61.09
78841;BME280;68379;47.190;27.558;2023-03-23T07:43:38;99930.77;;;12.95;60.29
78841;BME280;68379;47.190;27.558;2023-03-23T07:46:11;99931.25;;;13.04;60.41
78841;BME280;68379;47.190;27.558;2023-03-23T07:48:44;99929.62;;;13.16;59.93
78841;BME280;68379;47.190;27.558;2023-03-23T07:51:16;99929.83;;;13.30;58.77
78841;BME280;68379;47.190;27.558;2023-03-23T07:53:48;99926.25;;;13.42;56.74
78841;BME280;68379;47.190;27.558;2023-03-23T07:56:20;99926.63;;;13.55;57.25
78841;BME280;68379;47.190;27.558;2023-03-23T07:58:53;99928.27;;;13.72;56.74
78841;BME280;68379;47.190;27.558;2023-03-23T08:01:25;99931.16;;;13.92;54.93
78841;BME280;68379;47.190;27.558;2023-03-23T08:03:57;99933.05;;;14.00;54.64
78841;BME280;68379;47.190;27.558;2023-03-23T08:06:31;99923.81;;;14.07;55.23
78841;BME280;68379;47.190;27.558;2023-03-23T08:09:04;99921.29;;;14.21;54.91
78841;BME280;68379;47.190;27.558;2023-03-23T08:11:39;99922.00;;;14.34;54.73
78841;BME280;68379;47.190;27.558;2023-03-23T08:14:11;99918.13;;;14.50;53.05
78841;BME280;68379;47.190;27.558;2023-03-23T08:16:43;99920.86;;;14.59;53.75
78841;BME280;68379;47.190;27.558;2023-03-23T08:19:15;99915.13;;;14.66;54.01
78841;BME280;68379;47.190;27.558;2023-03-23T08:21:47;99914.41;;;14.70;52.65
78841;BME280;68379;47.190;27.558;2023-03-23T08:24:19;99919.13;;;14.68;52.65
78841;BME280;68379;47.190;27.558;2023-03-23T08:26:51;99920.33;;;14.59;53.31
78841;BME280;68379;47.190;27.558;2023-03-23T08:29:23;99929.33;;;14.57;52.14
78841;BME280;68379;47.190;27.558;2023-03-23T08:31:55;99928.23;;;14.55;53.07
78841;BME280;68379;47.190;27.558;2023-03-23T08:34:28;99930.83;;;14.59;53.36
78841;BME280;68379;47.190;27.558;2023-03-23T08:37:00;99926.48;;;14.67;54.20
78841;BME280;68379;47.190;27.558;2023-03-23T08:39:33;99924.27;;;14.75;53.33
78841;BME280;68379;47.190;27.558;2023-03-23T08:42:05;99927.14;;;14.77;52.59
78841;BME280;68379;47.190;27.558;2023-03-23T08:44:37;99923.12;;;14.83;52.51
78841;BME280;68379;47.190;27.558;2023-03-23T08:47:09;99921.87;;;14.92;51.58
78841;BME280;68379;47.190;27.558;2023-03-23T08:49:41;99924.14;;;14.97;50.94
78841;BME280;68379;47.190;27.558;2023-03-23T08:52:13;99922.52;;;15.09;51.48
78841;BME280;68379;47.190;27.558;2023-03-23T08:54:45;99921.00;;;15.23;49.40
78841;BME280;68379;47.190;27.558;2023-03-23T08:57:18;99922.27;;;15.32;50.34
78841;BME280;68379;47.190;27.558;2023-03-23T08:59:51;99922.73;;;15.43;50.71
78841;BME280;68379;47.190;27.558;2023-03-23T09:02:24;99918.50;;;15.51;51.22
78841;BME280;68379;47.190;27.558;2023-03-23T09:04:56;99913.13;;;15.58;51.20
78841;BME280;68379;47.190;27.558;2023-03-23T09:07:28;99911.31;;;15.68;50.40
78841;BME280;68379;47.190;27.558;2023-03-23T09:10:00;99909.61;;;15.82;50.17
78841;BME280;68379;47.190;27.558;2023-03-23T09:12:32;99902.02;;;15.95;49.84
78841;BME280;68379;47.190;27.558;2023-03-23T09:15:05;99901.54;;;16.12;49.18
78841;BME280;68379;47.190;27.558;2023-03-23T09:17:45;99899.54;;;16.24;49.72
78841;BME280;68379;47.190;27.558;2023-03-23T09:20:20;99902.74;;;16.39;49.31
78841;BME280;68379;47.190;27.558;2023-03-23T09:22:54;99898.96;;;16.45;47.02
78841;BME280;68379;47.190;27.558;2023-03-23T09:25:27;99899.06;;;16.51;46.15
78841;BME280;68379;47.190;27.558;2023-03-23T09:27:59;99896.36;;;16.55;44.41
78841;BME280;68379;47.190;27.558;2023-03-23T09:30:33;99893.04;;;16.57;44.43
78841;BME280;68379;47.190;27.558;2023-03-23T09:33:06;99883.86;;;16.60;44.68
78841;BME280;68379;47.190;27.558;2023-03-23T09:35:40;99881.08;;;16.68;45.44
78841;BME280;68379;47.190;27.558;2023-03-23T09:38:13;99880.29;;;16.81;42.51
78841;BME280;68379;47.190;27.558;2023-03-23T09:40:48;99874.41;;;16.89;43.33
78841;BME280;68379;47.190;27.558;2023-03-23T09:43:37;99870.02;;;16.99;44.07
78841;BME280;68379;47.190;27.558;2023-03-23T09:46:28;99871.05;;;17.16;43.04
78841;BME280;68379;47.190;27.558;2023-03-23T09:49:07;99860.94;;;17.20;42.88
78841;BME280;68379;47.190;27.558;2023-03-23T09:51:44;99861.30;;;17.36;43.39
78841;BME280;68379;47.190;27.558;2023-03-23T09:54:22;99854.38;;;17.44;42.80
78841;BME280;68379;47.190;27.558;2023-03-23T09:56:57;99847.66;;;17.51;42.54
78841;BME280;68379;47.190;27.558;2023-03-23T09:59:34;99849.52;;;17.62;42.12
78841;BME280;68379;47.190;27.558;2023-03-23T10:02:14;99845.84;;;17.72;41.99
78841;BME280;68379;47.190;27.558;2023-03-23T10:04:49;99841.19;;;17.72;41.56
78841;BME280;68379;47.190;27.558;2023-03-23T10:07:24;99847.75;;;17.81;41.53
78841;BME280;68379;47.190;27.558;2023-03-23T10:09:58;99845.27;;;17.98;40.12
78841;BME280;68379;47.190;27.558;2023-03-23T10:12:36;99845.95;;;18.14;39.10
78841;BME280;68379;47.190;27.558;2023-03-23T10:15:15;99845.94;;;18.27;37.89
78841;BME280;68379;47.190;27.558;2023-03-23T10:17:54;99842.02;;;18.44;39.74
78841;BME280;68379;47.190;27.558;2023-03-23T10:20:35;99840.69;;;18.58;37.31
78841;BME280;68379;47.190;27.558;2023-03-23T10:23:21;99838.36;;;18.62;35.90
78841;BME280;68379;47.190;27.558;2023-03-23T10:26:04;99835.70;;;18.67;35.98
78841;BME280;68379;47.190;27.558;2023-03-23T10:28:42;99826.83;;;18.69;36.29
78841;BME280;68379;47.190;27.558;2023-03-23T10:31:17;99821.23;;;18.80;35.31
78841;BME280;68379;47.190;27.558;2023-03-23T10:33:52;99828.36;;;18.90;34.58
78841;BME280;68379;47.190;27.558;2023-03-23T10:36:27;99824.86;;;18.86;35.17
78841;BME280;68379;47.190;27.558;2023-03-23T10:39:16;99821.06;;;18.89;34.59
78841;BME280;68379;47.190;27.558;2023-03-23T10:41:51;99822.02;;;19.03;35.19
78841;BME280;68379;47.190;27.558;2023-03-23T10:44:25;99818.52;;;19.14;33.12
78841;BME280;68379;47.190;27.558;2023-03-23T10:46:59;99816.52;;;19.14;33.60
78841;BME280;68379;47.190;27.558;2023-03-23T10:49:37;99811.00;;;19.21;34.04
78841;BME280;68379;47.190;27.558;2023-03-23T10:52:25;99818.05;;;19.34;34.02
78841;BME280;68379;47.190;27.558;2023-03-23T10:55:01;99818.83;;;19.31;32.39
78841;BME280;68379;47.190;27.558;2023-03-23T10:57:36;99811.98;;;19.29;33.30
78841;BME280;68379;47.190;27.558;2023-03-23T11:00:17;99809.47;;;19.36;34.58
78841;BME280;68379;47.190;27.558;2023-03-23T11:03:01;99805.39;;;19.57;34.48
78841;BME280;68379;47.190;27.558;2023-03-23T11:05:40;99797.58;;;19.72;33.31
78841;BME280;68379;47.190;27.558;2023-03-23T11:08:15;99799.77;;;19.88;32.25
78841;BME280;68379;47.190;27.558;2023-03-23T11:10:52;99797.52;;;19.98;33.52
78841;BME280;68379;47.190;27.558;2023-03-23T11:13:29;99791.55;;;20.17;32.81
78841;BME280;68379;47.190;27.558;2023-03-23T11:16:02;99792.79;;;20.28;31.68
78841;BME280;68379;47.190;27.558;2023-03-23T11:18:40;99786.45;;;20.26;29.99
78841;BME280;68379;47.190;27.558;2023-03-23T11:21:14;99784.17;;;20.19;30.20
78841;BME280;68379;47.190;27.558;2023-03-23T11:23:51;99778.20;;;20.13;29.86
78841;BME280;68379;47.190;27.558;2023-03-23T11:26:27;99781.65;;;20.15;30.03
78841;BME280;68379;47.190;27.558;2023-03-23T11:29:03;99779.19;;;20.19;30.47
78841;BME280;68379;47.190;27.558;2023-03-23T11:31:38;99778.60;;;20.28;29.86
78841;BME280;68379;47.190;27.558;2023-03-23T11:34:17;99778.32;;;20.49;30.71
78841;BME280;68379;47.190;27.558;2023-03-23T11:36:52;99774.11;;;20.75;30.55
78841;BME280;68379;47.190;27.558;2023-03-23T11:39:26;99771.05;;;21.05;31.14
78841;BME280;68379;47.190;27.558;2023-03-23T11:42:01;99767.73;;;21.28;29.52
78841;BME280;68379;47.190;27.558;2023-03-23T11:44:40;99760.80;;;21.46;29.75
78841;BME280;68379;47.190;27.558;2023-03-23T11:47:13;99763.23;;;21.61;28.11
78841;BME280;68379;47.190;27.558;2023-03-23T11:49:53;99751.19;;;21.69;28.89
78841;BME280;68379;47.190;27.558;2023-03-23T11:52:36;99748.08;;;21.81;26.10
78841;BME280;68379;47.190;27.558;2023-03-23T11:55:15;99747.20;;;21.68;26.37
78841;BME280;68379;47.190;27.558;2023-03-23T11:57:48;99740.58;;;21.64;28.07
78841;BME280;68379;47.190;27.558;2023-03-23T12:00:21;99732.12;;;21.59;27.02
78841;BME280;68379;47.190;27.558;2023-03-23T12:03:30;99733.63;;;21.48;27.93
78841;BME280;68379;47.190;27.558;2023-03-23T12:06:07;99730.00;;;21.54;28.00
78841;BME280;68379;47.190;27.558;2023-03-23T12:08:51;99720.60;;;21.43;27.45
78841;BME280;68379;47.190;27.558;2023-03-23T12:11:31;99717.27;;;21.52;27.77
78841;BME280;68379;47.190;27.558;2023-03-23T12:14:14;99713.52;;;21.56;28.11
78841;BME280;68379;47.190;27.558;2023-03-23T12:17:00;99708.23;;;21.66;27.69
78841;BME280;68379;47.190;27.558;2023-03-23T12:19:42;99710.48;;;21.68;26.73
78841;BME280;68379;47.190;27.558;2023-03-23T12:22:28;99697.80;;;21.59;26.47
78841;BME280;68379;47.190;27.558;2023-03-23T12:25:21;99699.50;;;21.52;26.53
78841;BME280;68379;47.190;27.558;2023-03-23T12:28:01;99704.05;;;21.53;26.29
78841;BME280;68379;47.190;27.558;2023-03-23T12:30:38;99696.06;;;21.62;26.94
78841;BME280;68379;47.190;27.558;2023-03-23T12:33:24;99699.52;;;21.80;25.18
78841;BME280;68379;47.190;27.558;2023-03-23T12:36:02;99698.04;;;21.79;26.16
78841;BME280;68379;47.190;27.558;2023-03-23T12:38:51;99694.34;;;21.74;26.00
78841;BME280;68379;47.190;27.558;2023-03-23T12:41:28;99691.79;;;21.78;25.88
78841;BME280;68379;47.190;27.558;2023-03-23T12:44:07;99689.21;;;21.81;26.45
78841;BME280;68379;47.190;27.558;2023-03-23T12:47:05;99689.67;;;22.00;26.31
78841;BME280;68379;47.190;27.558;2023-03-23T12:49:45;99681.42;;;22.02;26.16
78841;BME280;68379;47.190;27.558;2023-03-23T12:52:22;99682.44;;;21.91;26.32
78841;BME280;68379;47.190;27.558;2023-03-23T12:54:59;99677.77;;;21.77;25.31
78841;BME280;68379;47.190;27.558;2023-03-23T12:57:35;99676.83;;;21.58;25.62
78841;BME280;68379;47.190;27.558;2023-03-23T13:00:17;99677.15;;;21.40;25.56
78841;BME280;68379;47.190;27.558;2023-03-23T13:02:56;99673.39;;;21.30;25.50
78841;BME280;68379;47.190;27.558;2023-03-23T13:05:36;99675.27;;;21.31;26.14
78841;BME280;68379;47.190;27.558;2023-03-23T13:08:18;99672.79;;;21.53;25.87
78841;BME280;68379;47.190;27.558;2023-03-23T13:10:53;99667.89;;;21.66;26.53
78841;BME280;68379;47.190;27.558;2023-03-23T13:13:43;99666.29;;;21.80;26.42
78841;BME280;68379;47.190;27.558;2023-03-23T13:16:25;99661.10;;;22.04;26.58
78841;BME280;68379;47.190;27.558;2023-03-23T13:19:06;99659.41;;;22.25;25.71
78841;BME280;68379;47.190;27.558;2023-03-23T13:21:46;99652.95;;;22.16;25.28
78841;BME280;68379;47.190;27.558;2023-03-23T13:24:23;99648.01;;;22.05;25.93
78841;BME280;68379;47.190;27.558;2023-03-23T13:26:58;99645.94;;;21.90;25.54
78841;BME280;68379;47.190;27.558;2023-03-23T13:29:31;99643.61;;;21.72;26.37
78841;BME280;68379;47.190;27.558;2023-03-23T13:32:10;99643.35;;;21.63;25.94
78841;BME280;68379;47.190;27.558;2023-03-23T13:34:43;99642.14;;;21.58;26.40
78841;BME280;68379;47.190;27.558;2023-03-23T13:37:23;99641.23;;;21.60;25.99
78841;BME280;68379;47.190;27.558;2023-03-23T13:39:57;99636.96;;;21.58;26.33
78841;BME280;68379;47.190;27.558;2023-03-23T13:42:30;99635.95;;;21.73;26.31